Time;durP1;ratioP1;P1;durP2;ratioP2;P2;SDS_P1;SDS_P2;PMS_P1;PMS_P2;Temp;Humidity;BMP_temperature;BMP_pressure;BME280_temperature;BME280_humidity;BME280_pressure;Samples;Min_cycle;Max_cycle;Signal;HPM_P1;HPM_P2
2022/07/06 00:00:51;;;;;;;3.40;3.10;;;;;;;;;;5080916;28;24476;-47
2022/07/06 00:03:17;;;;;;;3.80;3.50;;;;;;;;;;5081577;28;24421;-47
2022/07/06 00:05:42;;;;;;;3.50;3.20;;;;;;;;;;5083595;28;25143;-46
2022/07/06 00:08:07;;;;;;;4.00;3.70;;;;;;;;;;5074844;28;24483;-47
2022/07/06 00:10:32;;;;;;;3.70;3.40;;;;;;;;;;5082557;28;24453;-47
2022/07/06 00:12:57;;;;;;;3.45;3.25;;;;;;;;;;5077987;28;25030;-46
2022/07/06 00:15:22;;;;;;;3.38;3.08;;;;;;;;;;5078796;28;24483;-46
2022/07/06 00:17:48;;;;;;;4.00;3.70;;;;;;;;;;5081626;28;24425;-46
2022/07/06 00:20:14;;;;;;;4.50;3.60;;;;;;;;;;5085179;28;24474;-46
2022/07/06 00:22:39;;;;;;;3.60;3.30;;;;;;;;;;5080551;28;24424;-46
2022/07/06 00:25:04;;;;;;;3.33;3.13;;;;;;;;;;5078647;28;24434;-46
2022/07/06 00:27:29;;;;;;;3.63;3.40;;;;;;;;;;5079608;28;24536;-46
2022/07/06 00:29:54;;;;;;;3.60;3.30;;;;;;;;;;5079980;28;24534;-47
2022/07/06 00:32:20;;;;;;;3.85;3.55;;;;;;;;;;5080401;28;24519;-47
2022/07/06 00:34:45;;;;;;;3.47;3.17;;;;;;;;;;5078838;28;24864;-47
2022/07/06 00:37:10;;;;;;;4.53;3.20;;;;;;;;;;5069893;28;24518;-50
2022/07/06 00:39:35;;;;;;;3.70;3.40;;;;;;;;;;5074843;28;24975;-46
2022/07/06 00:42:00;;;;;;;3.73;3.43;;;;;;;;;;5075882;28;24418;-46
2022/07/06 00:44:25;;;;;;;3.90;3.60;;;;;;;;;;5080507;28;24792;-46
2022/07/06 00:46:51;;;;;;;4.20;3.90;;;;;;;;;;5079851;28;24472;-47
2022/07/06 00:52:00;;;;;;;4.00;3.70;;;;;;;;;;5083962;28;24421;-46
2022/07/06 00:54:26;;;;;;;3.60;3.40;;;;;;;;;;5078244;28;24419;-46
2022/07/06 00:56:51;;;;;;;4.13;3.72;;;;;;;;;;5081124;28;24429;-46
2022/07/06 00:59:16;;;;;;;4.07;3.67;;;;;;;;;;5078088;28;24988;-45
2022/07/06 01:01:41;;;;;;;3.20;3.00;;;;;;;;;;5079478;28;24425;-46
2022/07/06 01:04:07;;;;;;;4.07;3.80;;;;;;;;;;5074681;28;24487;-46
2022/07/06 01:06:32;;;;;;;3.63;3.33;;;;;;;;;;5077705;28;24421;-46
2022/07/06 01:08:58;;;;;;;3.80;3.50;;;;;;;;;;5085342;28;24525;-46
2022/07/06 01:11:23;;;;;;;3.42;3.22;;;;;;;;;;5082350;28;24421;-46
2022/07/06 01:13:49;;;;;;;3.90;3.70;;;;;;;;;;5075165;28;24541;-46
2022/07/06 01:16:14;;;;;;;4.20;3.90;;;;;;;;;;5068485;28;24453;-46
2022/07/06 01:18:40;;;;;;;4.17;3.80;;;;;;;;;;5076182;28;24484;-46
2022/07/06 01:21:06;;;;;;;3.92;3.63;;;;;;;;;;5074577;28;24442;-46
2022/07/06 01:23:31;;;;;;;4.32;4.03;;;;;;;;;;5080466;28;24423;-46
2022/07/06 01:25:56;;;;;;;4.43;4.03;;;;;;;;;;5083309;28;24483;-46
2022/07/06 01:28:21;;;;;;;3.50;3.30;;;;;;;;;;5076838;28;24926;-46
2022/07/06 01:30:48;;;;;;;4.70;4.20;;;;;;;;;;5074458;28;24514;-45
2022/07/06 01:33:13;;;;;;;4.03;3.63;;;;;;;;;;5081154;28;24527;-46
2022/07/06 01:35:39;;;;;;;4.70;4.30;;;;;;;;;;5082689;28;24493;-46
2022/07/06 01:38:04;;;;;;;4.45;4.15;;;;;;;;;;5080785;28;24426;-46
2022/07/06 01:40:29;;;;;;;4.60;4.30;;;;;;;;;;5079552;28;24429;-46
2022/07/06 01:42:54;;;;;;;4.40;4.00;;;;;;;;;;5079812;28;24432;-46
2022/07/06 01:45:19;;;;;;;4.57;4.18;;;;;;;;;;5068729;28;24445;-46
2022/07/06 01:47:45;;;;;;;4.67;4.20;;;;;;;;;;5083775;28;24533;-46
2022/07/06 01:50:10;;;;;;;4.20;3.90;;;;;;;;;;5078548;28;24406;-46
2022/07/06 01:52:35;;;;;;;4.70;4.30;;;;;;;;;;5080509;28;24426;-46
2022/07/06 01:55:01;;;;;;;4.75;4.35;;;;;;;;;;5085113;28;24422;-46
2022/07/06 01:57:26;;;;;;;4.20;3.90;;;;;;;;;;5076229;28;25040;-46
2022/07/06 01:59:51;;;;;;;4.40;4.00;;;;;;;;;;5080612;28;24436;-47
2022/07/06 02:02:17;;;;;;;4.25;3.85;;;;;;;;;;5084715;28;24462;-47
2022/07/06 02:04:42;;;;;;;4.50;4.20;;;;;;;;;;5083583;28;24517;-46
2022/07/06 02:07:07;;;;;;;4.53;4.00;;;;;;;;;;5083783;28;24521;-46
2022/07/06 02:09:32;;;;;;;4.53;4.10;;;;;;;;;;5080538;28;24418;-46
2022/07/06 02:11:57;;;;;;;4.53;4.23;;;;;;;;;;5082267;28;24951;-46
2022/07/06 02:14:23;;;;;;;4.90;4.50;;;;;;;;;;5081346;28;24445;-46
2022/07/06 02:16:48;;;;;;;4.63;4.22;;;;;;;;;;5081875;28;24499;-46
2022/07/06 02:19:13;;;;;;;4.20;3.90;;;;;;;;;;5078675;28;24962;-47
2022/07/06 02:21:38;;;;;;;4.55;4.20;;;;;;;;;;5083295;28;24434;-46
2022/07/06 02:24:03;;;;;;;4.88;4.47;;;;;;;;;;5076946;28;24453;-46
2022/07/06 02:26:29;;;;;;;4.60;4.30;;;;;;;;;;5080086;28;25043;-46
2022/07/06 02:28:54;;;;;;;4.32;3.95;;;;;;;;;;5082338;28;25182;-46
2022/07/06 02:31:19;;;;;;;4.10;3.80;;;;;;;;;;5080595;28;25006;-46
2022/07/06 02:33:44;;;;;;;4.25;3.85;;;;;;;;;;5072399;28;24995;-46
2022/07/06 02:36:09;;;;;;;4.00;3.70;;;;;;;;;;5083402;28;24464;-47
2022/07/06 02:38:34;;;;;;;4.20;3.90;;;;;;;;;;5073173;28;24517;-46
2022/07/06 02:41:00;;;;;;;4.20;3.90;;;;;;;;;;5085141;28;24483;-46
2022/07/06 02:43:25;;;;;;;3.80;3.60;;;;;;;;;;5085051;28;24474;-47
2022/07/06 02:45:50;;;;;;;4.43;4.13;;;;;;;;;;5079415;28;24457;-47
2022/07/06 02:48:15;;;;;;;4.53;4.22;;;;;;;;;;5084647;28;24434;-47
2022/07/06 02:50:40;;;;;;;4.40;4.10;;;;;;;;;;5080358;28;24407;-47
2022/07/06 02:53:05;;;;;;;4.10;3.80;;;;;;;;;;5074025;28;24631;-47
2022/07/06 02:55:31;;;;;;;4.07;3.77;;;;;;;;;;5084906;28;24464;-47
2022/07/06 02:57:56;;;;;;;3.93;3.73;;;;;;;;;;5084171;28;24454;-47
2022/07/06 03:00:21;;;;;;;3.83;3.60;;;;;;;;;;5079493;28;24975;-45
2022/07/06 03:02:46;;;;;;;4.00;3.70;;;;;;;;;;5075368;28;24546;-46
2022/07/06 03:05:11;;;;;;;4.03;3.83;;;;;;;;;;5072168;28;24426;-45
2022/07/06 03:07:37;;;;;;;4.47;4.18;;;;;;;;;;5080147;28;24972;-45
2022/07/06 03:10:02;;;;;;;4.50;4.20;;;;;;;;;;5075827;28;24533;-46
2022/07/06 03:12:27;;;;;;;4.00;3.80;;;;;;;;;;5071054;28;24430;-46
2022/07/06 03:14:52;;;;;;;3.97;3.78;;;;;;;;;;5084849;28;25179;-46
2022/07/06 03:17:17;;;;;;;4.15;3.85;;;;;;;;;;5074797;28;24991;-46
2022/07/06 03:19:42;;;;;;;3.83;3.60;;;;;;;;;;5082051;28;24441;-46
2022/07/06 03:22:08;;;;;;;4.30;4.00;;;;;;;;;;5075023;28;25042;-46
2022/07/06 03:24:33;;;;;;;4.18;3.88;;;;;;;;;;5077000;28;24425;-46
2022/07/06 03:26:58;;;;;;;4.00;3.70;;;;;;;;;;5075793;28;24461;-47
2022/07/06 03:29:23;;;;;;;4.00;3.70;;;;;;;;;;5087971;28;24414;-47
2022/07/06 03:31:48;;;;;;;4.10;3.80;;;;;;;;;;5087048;28;25007;-50
2022/07/06 03:34:13;;;;;;;4.30;3.90;;;;;;;;;;5078668;28;24410;-47
2022/07/06 03:36:39;;;;;;;4.10;3.90;;;;;;;;;;5087713;28;24533;-47
2022/07/06 03:39:04;;;;;;;4.20;3.90;;;;;;;;;;5080993;28;25010;-47
2022/07/06 03:41:29;;;;;;;3.60;3.40;;;;;;;;;;5084944;28;24434;-46
2022/07/06 03:43:55;;;;;;;3.60;3.40;;;;;;;;;;5085370;28;24425;-46
2022/07/06 03:46:20;;;;;;;4.23;3.83;;;;;;;;;;5077593;28;24449;-47
2022/07/06 03:48:45;;;;;;;3.87;3.67;;;;;;;;;;5077849;28;24552;-47
2022/07/06 03:51:11;;;;;;;3.70;3.50;;;;;;;;;;5081838;28;24429;-47
2022/07/06 03:53:36;;;;;;;3.40;3.20;;;;;;;;;;5080899;28;24417;-47
2022/07/06 03:56:43;;;;;;;3.50;3.30;;;;;;;;;;5085386;28;24422;-46
2022/07/06 03:58:50;;;;;;;3.60;3.40;;;;;;;;;;5076310;28;25020;-46
2022/07/06 04:01:15;;;;;;;3.15;2.95;;;;;;;;;;5076958;28;24507;-46
2022/07/06 04:03:40;;;;;;;3.20;3.00;;;;;;;;;;5069229;28;24975;-46
2022/07/06 04:06:05;;;;;;;3.30;3.10;;;;;;;;;;5068396;28;24422;-46
2022/07/06 04:08:30;;;;;;;4.33;4.03;;;;;;;;;;5079794;28;24461;-46
2022/07/06 04:10:56;;;;;;;3.10;2.90;;;;;;;;;;5086095;28;24418;-46
2022/07/06 04:13:21;;;;;;;3.67;3.20;;;;;;;;;;5086502;28;24418;-46
2022/07/06 04:15:46;;;;;;;3.50;3.30;;;;;;;;;;5084115;28;24429;-46
2022/07/06 04:18:11;;;;;;;3.10;2.90;;;;;;;;;;5077694;28;24460;-46
2022/07/06 04:20:36;;;;;;;3.43;3.23;;;;;;;;;;5065895;28;24519;-47
2022/07/06 04:23:02;;;;;;;3.33;3.10;;;;;;;;;;5066825;28;24399;-46
2022/07/06 04:25:27;;;;;;;3.10;2.90;;;;;;;;;;5061790;28;24395;-46
2022/07/06 04:27:52;;;;;;;4.63;3.60;;;;;;;;;;5062469;28;24418;-47
2022/07/06 04:30:17;;;;;;;3.05;2.85;;;;;;;;;;5084384;28;24442;-47
2022/07/06 04:32:42;;;;;;;3.42;3.22;;;;;;;;;;5084231;28;24837;-48
2022/07/06 04:35:08;;;;;;;3.67;3.40;;;;;;;;;;5084310;28;24386;-47
2022/07/06 04:37:33;;;;;;;3.53;3.33;;;;;;;;;;5083645;28;24470;-48
2022/07/06 04:39:58;;;;;;;4.10;3.80;;;;;;;;;;5063819;28;24718;-46
2022/07/06 04:42:24;;;;;;;3.40;3.20;;;;;;;;;;5063135;28;24931;-47
2022/07/06 04:44:51;;;;;;;3.65;3.30;;;;;;;;;;5063506;28;24419;-46
2022/07/06 04:47:16;;;;;;;3.95;3.65;;;;;;;;;;5062766;28;24422;-46
2022/07/06 04:49:41;;;;;;;3.22;3.03;;;;;;;;;;5064315;28;24741;-46
2022/07/06 04:52:07;;;;;;;3.70;3.40;;;;;;;;;;5082298;28;24479;-47
2022/07/06 04:54:32;;;;;;;3.53;3.17;;;;;;;;;;5081259;28;24409;-47
2022/07/06 04:56:58;;;;;;;4.10;3.70;;;;;;;;;;5062639;28;24502;-47
2022/07/06 04:59:23;;;;;;;3.85;3.55;;;;;;;;;;5062981;28;24406;-47
2022/07/06 05:01:48;;;;;;;4.40;4.00;;;;;;;;;;5079517;28;24819;-47
2022/07/06 05:04:13;;;;;;;4.13;3.83;;;;;;;;;;5068047;28;24545;-47
2022/07/06 05:06:39;;;;;;;3.80;3.50;;;;;;;;;;5075360;28;24438;-47
2022/07/06 05:09:04;;;;;;;4.30;3.90;;;;;;;;;;5075568;28;24552;-46
2022/07/06 05:11:29;;;;;;;3.80;3.43;;;;;;;;;;5062607;28;24399;-46
2022/07/06 05:13:55;;;;;;;4.13;3.40;;;;;;;;;;5063391;28;24465;-46
2022/07/06 05:16:20;;;;;;;3.83;3.43;;;;;;;;;;5064150;28;24497;-46
2022/07/06 05:18:45;;;;;;;5.65;4.10;;;;;;;;;;5065335;28;24825;-46
2022/07/06 05:21:10;;;;;;;3.80;3.50;;;;;;;;;;5065130;28;24697;-47
2022/07/06 05:23:36;;;;;;;4.28;3.90;;;;;;;;;;5065469;28;24473;-47
2022/07/06 05:26:01;;;;;;;4.50;3.70;;;;;;;;;;5084936;28;24430;-47
2022/07/06 05:28:26;;;;;;;3.50;3.20;;;;;;;;;;5085963;28;24418;-46
2022/07/06 05:30:51;;;;;;;3.50;3.20;;;;;;;;;;5085653;28;24836;-47
2022/07/06 05:33:16;;;;;;;3.73;3.43;;;;;;;;;;5072157;28;24960;-46
2022/07/06 05:35:42;;;;;;;3.70;3.40;;;;;;;;;;5066132;28;24932;-47
2022/07/06 05:38:07;;;;;;;3.63;3.28;;;;;;;;;;5069344;28;24387;-47
2022/07/06 05:40:32;;;;;;;4.20;3.80;;;;;;;;;;5069814;28;24862;-47
2022/07/06 05:42:57;;;;;;;3.90;3.25;;;;;;;;;;5069148;28;25011;-47
2022/07/06 05:45:23;;;;;;;3.60;3.30;;;;;;;;;;5068881;28;24442;-47
2022/07/06 05:50:32;;;;;;;3.30;3.00;;;;;;;;;;5088512;28;24386;-47
2022/07/06 05:52:58;;;;;;;3.30;3.00;;;;;;;;;;5087683;28;24899;-47
2022/07/06 05:55:23;;;;;;;3.40;3.10;;;;;;;;;;5089599;28;24974;-46
2022/07/06 05:57:50;;;;;;;3.23;2.90;;;;;;;;;;5089613;28;24421;-46
2022/07/06 06:00:15;;;;;;;2.90;2.70;;;;;;;;;;5089824;28;24390;-46
2022/07/06 06:02:41;;;;;;;2.70;2.50;;;;;;;;;;5084225;28;24437;-47
2022/07/06 06:05:10;;;;;;;3.92;2.90;;;;;;;;;;5080983;28;24522;-46
2022/07/06 06:07:36;;;;;;;2.75;2.55;;;;;;;;;;5077777;28;24823;-47
2022/07/06 06:10:02;;;;;;;2.80;2.60;;;;;;;;;;5076340;28;25009;-47
2022/07/06 06:12:27;;;;;;;2.78;2.58;;;;;;;;;;5088349;28;24436;-47
2022/07/06 06:14:52;;;;;;;2.87;2.67;;;;;;;;;;5072931;28;24434;-46
2022/07/06 06:17:17;;;;;;;3.22;2.70;;;;;;;;;;5072645;28;24434;-47
2022/07/06 06:19:42;;;;;;;2.70;2.50;;;;;;;;;;5083933;28;24426;-47
2022/07/06 06:22:08;;;;;;;2.90;2.70;;;;;;;;;;5087807;28;24410;-47
2022/07/06 06:24:33;;;;;;;2.80;2.50;;;;;;;;;;5077830;28;24502;-47
2022/07/06 06:26:59;;;;;;;3.35;2.50;;;;;;;;;;5086529;28;24429;-47
2022/07/06 06:29:24;;;;;;;2.97;2.55;;;;;;;;;;5089146;28;24424;-47
2022/07/06 06:31:49;;;;;;;2.80;2.60;;;;;;;;;;5073264;28;24984;-47
2022/07/06 06:34:14;;;;;;;2.72;2.53;;;;;;;;;;5071024;28;24443;-47
2022/07/06 06:36:39;;;;;;;2.58;2.38;;;;;;;;;;5081945;28;24426;-47
2022/07/06 06:39:05;;;;;;;2.60;2.40;;;;;;;;;;5093574;28;25248;-47
2022/07/06 06:41:30;;;;;;;2.60;2.40;;;;;;;;;;5109267;28;24485;-45
2022/07/06 06:43:55;;;;;;;2.80;2.60;;;;;;;;;;5090079;28;24449;-45
2022/07/06 06:46:20;;;;;;;2.72;2.53;;;;;;;;;;5072998;28;25011;-45
2022/07/06 06:48:45;;;;;;;2.60;2.40;;;;;;;;;;5087703;28;24509;-46
2022/07/06 06:51:10;;;;;;;2.50;2.10;;;;;;;;;;5088041;28;24993;-46
2022/07/06 06:53:35;;;;;;;2.58;2.30;;;;;;;;;;5088319;28;24398;-46
2022/07/06 06:56:01;;;;;;;3.97;2.60;;;;;;;;;;5074671;28;24460;-46
2022/07/06 06:58:26;;;;;;;2.90;2.60;;;;;;;;;;5068143;28;24999;-46
2022/07/06 07:00:51;;;;;;;3.03;2.50;;;;;;;;;;5068210;28;24387;-46
2022/07/06 07:03:16;;;;;;;2.50;2.30;;;;;;;;;;5067915;28;24398;-47
2022/07/06 07:05:41;;;;;;;3.20;2.22;;;;;;;;;;5067900;28;24468;-46
2022/07/06 07:08:06;;;;;;;2.40;2.20;;;;;;;;;;5067772;28;24770;-47
2022/07/06 07:10:32;;;;;;;2.65;2.30;;;;;;;;;;5068163;28;24395;-46
2022/07/06 07:12:57;;;;;;;2.70;2.50;;;;;;;;;;5067797;28;24390;-45
2022/07/06 07:15:22;;;;;;;3.47;2.20;;;;;;;;;;5068020;28;24532;-46
2022/07/06 07:17:47;;;;;;;2.92;2.13;;;;;;;;;;5067507;28;24464;-45
2022/07/06 07:20:12;;;;;;;2.40;2.00;;;;;;;;;;5067923;28;24409;-45
2022/07/06 07:22:38;;;;;;;3.17;2.60;;;;;;;;;;5067738;28;24449;-44
2022/07/06 07:25:03;;;;;;;3.13;2.50;;;;;;;;;;5067717;28;24621;-45
2022/07/06 07:27:28;;;;;;;3.20;2.60;;;;;;;;;;5067946;28;24992;-47
2022/07/06 07:29:54;;;;;;;2.73;2.20;;;;;;;;;;5067827;28;24391;-46
2022/07/06 07:32:19;;;;;;;3.00;2.17;;;;;;;;;;5067408;28;25158;-46
2022/07/06 07:34:45;;;;;;;3.15;2.33;;;;;;;;;;5067374;28;24381;-46
2022/07/06 07:37:10;;;;;;;2.83;2.20;;;;;;;;;;5067296;28;24442;-46
2022/07/06 07:39:36;;;;;;;1.80;1.70;;;;;;;;;;5067400;28;24491;-46
2022/07/06 07:42:01;;;;;;;2.15;1.90;;;;;;;;;;5067290;28;24423;-46
2022/07/06 07:44:27;;;;;;;1.80;1.70;;;;;;;;;;5065493;28;24398;-46
2022/07/06 07:46:52;;;;;;;3.42;2.03;;;;;;;;;;5076931;28;24484;-46
2022/07/06 07:49:17;;;;;;;2.00;1.80;;;;;;;;;;5068164;28;25072;-46
2022/07/06 07:51:42;;;;;;;2.20;1.70;;;;;;;;;;5067050;28;24944;-46
2022/07/06 07:54:07;;;;;;;1.83;1.70;;;;;;;;;;5066617;28;24398;-47
2022/07/06 07:56:33;;;;;;;2.00;1.80;;;;;;;;;;5067087;28;24391;-46
2022/07/06 07:58:58;;;;;;;1.63;1.50;;;;;;;;;;5067894;28;24464;-46
2022/07/06 08:01:23;;;;;;;1.60;1.50;;;;;;;;;;5067210;28;24947;-46
2022/07/06 08:03:48;;;;;;;2.77;1.70;;;;;;;;;;5066560;28;24719;-47
2022/07/06 08:06:13;;;;;;;2.90;1.80;;;;;;;;;;5066677;28;24391;-51
2022/07/06 08:08:38;;;;;;;1.95;1.60;;;;;;;;;;5067079;28;24445;-47
2022/07/06 08:11:04;;;;;;;1.90;1.60;;;;;;;;;;5066836;28;24409;-46
2022/07/06 08:13:29;;;;;;;1.70;1.40;;;;;;;;;;5063349;28;24405;-46
2022/07/06 08:15:54;;;;;;;1.65;1.55;;;;;;;;;;5066560;28;24395;-46
2022/07/06 08:18:19;;;;;;;1.40;1.30;;;;;;;;;;5066543;28;24584;-46
2022/07/06 08:20:44;;;;;;;2.30;1.70;;;;;;;;;;5066271;28;24781;-46
2022/07/06 08:23:09;;;;;;;2.03;1.80;;;;;;;;;;5066366;28;24943;-46
2022/07/06 08:25:35;;;;;;;2.13;1.58;;;;;;;;;;5066533;28;24512;-46
2022/07/06 08:28:00;;;;;;;1.93;1.80;;;;;;;;;;5066278;28;24453;-47
2022/07/06 08:30:25;;;;;;;3.40;1.50;;;;;;;;;;5066701;28;24427;-46
2022/07/06 08:32:51;;;;;;;1.70;1.33;;;;;;;;;;5066192;28;24438;-46
2022/07/06 08:35:16;;;;;;;2.35;1.30;;;;;;;;;;5066267;28;24383;-46
2022/07/06 08:37:41;;;;;;;1.87;1.40;;;;;;;;;;5066162;28;24482;-46
2022/07/06 08:40:07;;;;;;;1.60;1.50;;;;;;;;;;5065909;28;24402;-46
2022/07/06 08:42:33;;;;;;;1.30;1.20;;;;;;;;;;5063806;28;24506;-47
2022/07/06 08:44:59;;;;;;;2.40;1.50;;;;;;;;;;5069207;28;24471;-45
2022/07/06 08:47:26;;;;;;;2.90;1.77;;;;;;;;;;5086381;28;24467;-45
2022/07/06 08:49:51;;;;;;;2.10;1.65;;;;;;;;;;5086289;28;24426;-45
2022/07/06 08:52:16;;;;;;;2.20;1.70;;;;;;;;;;5070140;28;24466;-46
2022/07/06 08:54:41;;;;;;;2.30;1.90;;;;;;;;;;5066182;28;24514;-46
2022/07/06 08:57:06;;;;;;;2.90;1.55;;;;;;;;;;5065881;28;24382;-46
2022/07/06 08:59:32;;;;;;;2.80;1.70;;;;;;;;;;5066310;28;24445;-46
2022/07/06 09:01:59;;;;;;;3.35;1.73;;;;;;;;;;5065537;28;24431;-46
2022/07/06 09:04:24;;;;;;;2.00;1.80;;;;;;;;;;5065422;28;24761;-45
2022/07/06 09:06:50;;;;;;;2.37;1.60;;;;;;;;;;5065783;28;24925;-45
2022/07/06 09:09:18;;;;;;;2.67;1.40;;;;;;;;;;5065698;28;24476;-47
2022/07/06 09:11:43;;;;;;;1.80;1.60;;;;;;;;;;5065121;28;24969;-46
2022/07/06 09:14:09;;;;;;;1.90;1.40;;;;;;;;;;5071083;28;24430;-46
2022/07/06 09:16:35;;;;;;;2.00;1.50;;;;;;;;;;5084627;28;24409;-45
2022/07/06 09:19:00;;;;;;;1.60;1.50;;;;;;;;;;5086106;28;24425;-45
2022/07/06 09:21:26;;;;;;;3.13;1.57;;;;;;;;;;5086044;28;24793;-46
2022/07/06 09:23:55;;;;;;;1.70;1.40;;;;;;;;;;5066797;28;24548;-46
2022/07/06 09:26:21;;;;;;;1.90;1.40;;;;;;;;;;5065652;28;24395;-47
2022/07/06 09:28:46;;;;;;;1.40;1.30;;;;;;;;;;5065691;28;24438;-47
2022/07/06 09:31:11;;;;;;;1.70;1.60;;;;;;;;;;5065672;28;24444;-46
2022/07/06 09:33:36;;;;;;;3.13;1.90;;;;;;;;;;5071004;28;24556;-46
2022/07/06 09:36:02;;;;;;;2.30;1.50;;;;;;;;;;5085945;28;24924;-46
2022/07/06 09:38:27;;;;;;;1.58;1.48;;;;;;;;;;5085437;28;24444;-46
2022/07/06 09:40:52;;;;;;;1.70;1.60;;;;;;;;;;5086027;28;24417;-46
2022/07/06 09:43:19;;;;;;;3.28;1.90;;;;;;;;;;5082569;28;25005;-46
2022/07/06 09:45:45;;;;;;;1.90;1.45;;;;;;;;;;5085219;28;25008;-46
2022/07/06 09:48:15;;;;;;;2.00;1.52;;;;;;;;;;5085377;28;24784;-46
2022/07/06 09:50:44;;;;;;;2.27;1.57;;;;;;;;;;5085779;28;24518;-46
2022/07/06 09:53:10;;;;;;;1.95;1.35;;;;;;;;;;5071915;28;24476;-45
2022/07/06 09:55:35;;;;;;;1.60;1.50;;;;;;;;;;5065740;28;24426;-46
2022/07/06 09:58:00;;;;;;;2.40;1.60;;;;;;;;;;5065681;28;24418;-46
2022/07/06 10:00:25;;;;;;;1.40;1.30;;;;;;;;;;5065408;28;24745;-46
2022/07/06 10:02:51;;;;;;;1.80;1.40;;;;;;;;;;5066393;28;24536;-46
2022/07/06 10:05:17;;;;;;;2.00;1.90;;;;;;;;;;5074180;28;24783;-45
2022/07/06 10:07:43;;;;;;;2.15;1.80;;;;;;;;;;5085536;28;24414;-46
2022/07/06 10:10:08;;;;;;;1.90;1.80;;;;;;;;;;5085203;28;24399;-45
2022/07/06 10:12:33;;;;;;;2.00;1.85;;;;;;;;;;5085343;28;24393;-45
2022/07/06 10:14:59;;;;;;;3.47;1.80;;;;;;;;;;5067445;28;24449;-45
2022/07/06 10:17:25;;;;;;;2.08;1.88;;;;;;;;;;5065329;28;24387;-46
2022/07/06 10:19:50;;;;;;;2.40;1.80;;;;;;;;;;5065074;28;24824;-45
2022/07/06 10:22:17;;;;;;;1.90;1.80;;;;;;;;;;5064878;28;24972;-45
2022/07/06 10:24:43;;;;;;;1.90;1.70;;;;;;;;;;5077229;28;24534;-45
2022/07/06 10:27:10;;;;;;;3.10;2.03;;;;;;;;;;5088943;28;24477;-45
2022/07/06 10:29:35;;;;;;;1.88;1.60;;;;;;;;;;5089168;28;24970;-45
2022/07/06 10:32:00;;;;;;;2.00;1.80;;;;;;;;;;5088684;28;24398;-45
2022/07/06 10:34:25;;;;;;;2.50;1.93;;;;;;;;;;5086602;28;24793;-46
2022/07/06 10:36:52;;;;;;;2.70;1.90;;;;;;;;;;5088532;28;24550;-46
2022/07/06 10:42:34;;;;;;;2.13;1.73;;;;;;;;;;5088417;28;24444;-46
2022/07/06 10:44:59;;;;;;;1.75;1.60;;;;;;;;;;5087284;28;24423;-47
2022/07/06 10:47:27;;;;;;;1.90;1.70;;;;;;;;;;5088400;28;24451;-46
2022/07/06 10:49:58;;;;;;;1.80;1.70;;;;;;;;;;5088731;28;24379;-46
2022/07/06 10:52:23;;;;;;;1.85;1.73;;;;;;;;;;5088209;28;24393;-46
2022/07/06 10:54:48;;;;;;;1.87;1.77;;;;;;;;;;5085774;28;24431;-46
2022/07/06 10:57:15;;;;;;;1.60;1.50;;;;;;;;;;5067729;28;24430;-46
2022/07/06 10:59:40;;;;;;;2.38;1.73;;;;;;;;;;5068499;28;24466;-46
2022/07/06 11:02:18;;;;;;;3.80;1.90;;;;;;;;;;5067793;28;24475;-45
2022/07/06 11:04:44;;;;;;;2.40;1.60;;;;;;;;;;5068508;28;24398;-45
2022/07/06 11:07:10;;;;;;;1.70;1.60;;;;;;;;;;5068974;28;24429;-45
2022/07/06 11:09:36;;;;;;;1.77;1.60;;;;;;;;;;5068159;28;24682;-46
2022/07/06 11:12:11;;;;;;;1.93;1.80;;;;;;;;;;5068033;28;24437;-46
2022/07/06 11:14:37;;;;;;;2.47;1.70;;;;;;;;;;5068865;28;24430;-45
2022/07/06 11:17:03;;;;;;;2.00;1.70;;;;;;;;;;5088274;28;25045;-45
2022/07/06 11:19:28;;;;;;;3.67;2.47;;;;;;;;;;5085853;28;24428;-45
2022/07/06 11:21:58;;;;;;;1.87;1.70;;;;;;;;;;5068007;28;24395;-45
2022/07/06 11:24:28;;;;;;;1.83;1.73;;;;;;;;;;5067279;28;24391;-46
2022/07/06 11:26:54;;;;;;;1.80;1.70;;;;;;;;;;5066879;28;24825;-46
2022/07/06 11:29:21;;;;;;;1.60;1.50;;;;;;;;;;5067263;28;24999;-46
2022/07/06 11:31:47;;;;;;;1.60;1.50;;;;;;;;;;5067781;28;24422;-46
2022/07/06 11:34:18;;;;;;;2.50;1.63;;;;;;;;;;5066819;28;24418;-46
2022/07/06 11:36:43;;;;;;;2.50;2.00;;;;;;;;;;5087957;28;24489;-45
2022/07/06 11:39:08;;;;;;;1.58;1.48;;;;;;;;;;5087368;28;24510;-45
2022/07/06 11:41:34;;;;;;;2.30;1.60;;;;;;;;;;5087181;28;24394;-46
2022/07/06 11:43:59;;;;;;;1.90;1.70;;;;;;;;;;5087004;28;24390;-46
2022/07/06 11:46:26;;;;;;;2.10;1.90;;;;;;;;;;5084805;28;24457;-45
2022/07/06 11:48:52;;;;;;;1.75;1.65;;;;;;;;;;5087301;28;24418;-45
2022/07/06 11:51:18;;;;;;;2.10;1.90;;;;;;;;;;5087092;28;24393;-46
2022/07/06 11:53:47;;;;;;;2.92;1.50;;;;;;;;;;5087177;28;24382;-46
2022/07/06 11:56:13;;;;;;;3.40;1.97;;;;;;;;;;5086429;28;24545;-46
2022/07/06 11:58:39;;;;;;;2.22;2.00;;;;;;;;;;5086928;28;24402;-46
2022/07/06 12:01:05;;;;;;;1.88;1.70;;;;;;;;;;5086956;28;24990;-46
2022/07/06 12:03:30;;;;;;;1.80;1.70;;;;;;;;;;5086561;28;24881;-45
2022/07/06 12:05:55;;;;;;;2.55;1.90;;;;;;;;;;5083576;28;24429;-45
2022/07/06 12:08:20;;;;;;;2.28;2.00;;;;;;;;;;5086714;28;24978;-45
2022/07/06 12:10:45;;;;;;;2.65;2.03;;;;;;;;;;5086937;28;24398;-45
2022/07/06 12:13:11;;;;;;;2.13;1.60;;;;;;;;;;5087039;28;24519;-45
2022/07/06 12:15:36;;;;;;;1.80;1.70;;;;;;;;;;5084074;28;24433;-45
2022/07/06 12:18:01;;;;;;;1.97;1.80;;;;;;;;;;5087263;28;25007;-46
2022/07/06 12:20:26;;;;;;;1.80;1.60;;;;;;;;;;5086523;28;24418;-46
2022/07/06 12:23:00;;;;;;;3.38;2.28;;;;;;;;;;5087013;28;24398;-46
2022/07/06 12:25:30;;;;;;;1.70;1.50;;;;;;;;;;5083524;28;24959;-47
2022/07/06 12:27:55;;;;;;;2.15;1.95;;;;;;;;;;5066497;28;24491;-46
2022/07/06 12:30:20;;;;;;;2.50;2.30;;;;;;;;;;5066399;28;24390;-47
2022/07/06 12:32:45;;;;;;;2.50;2.30;;;;;;;;;;5066437;28;24444;-47
2022/07/06 12:35:11;;;;;;;3.50;1.90;;;;;;;;;;5065921;28;24510;-47
2022/07/06 12:37:36;;;;;;;2.80;2.10;;;;;;;;;;5066275;28;24434;-47
2022/07/06 12:40:02;;;;;;;2.15;2.00;;;;;;;;;;5072876;28;24814;-46
2022/07/06 12:42:28;;;;;;;1.90;1.80;;;;;;;;;;5086002;28;24391;-46
2022/07/06 12:44:53;;;;;;;1.90;1.80;;;;;;;;;;5085902;28;24443;-46
2022/07/06 12:47:23;;;;;;;3.20;1.90;;;;;;;;;;5081964;28;24589;-48
2022/07/06 12:49:49;;;;;;;1.90;1.80;;;;;;;;;;5086034;28;24908;-46
2022/07/06 12:52:14;;;;;;;1.60;1.50;;;;;;;;;;5086457;28;24407;-46
2022/07/06 12:54:41;;;;;;;2.33;1.80;;;;;;;;;;5086334;28;24387;-47
2022/07/06 12:57:13;;;;;;;2.05;1.50;;;;;;;;;;5082997;28;25051;-47
2022/07/06 12:59:40;;;;;;;1.58;1.48;;;;;;;;;;5080851;28;24944;-46
2022/07/06 13:02:06;;;;;;;1.60;1.50;;;;;;;;;;5086093;28;24402;-45
2022/07/06 13:04:31;;;;;;;1.70;1.60;;;;;;;;;;5083588;28;24920;-45
2022/07/06 13:06:57;;;;;;;1.60;1.50;;;;;;;;;;5086388;28;24405;-46
2022/07/06 13:09:22;;;;;;;2.30;1.93;;;;;;;;;;5068083;28;24588;-46
2022/07/06 13:11:48;;;;;;;2.80;1.70;;;;;;;;;;5066004;28;24466;-46
2022/07/06 13:14:14;;;;;;;1.90;1.60;;;;;;;;;;5065931;28;24905;-47
2022/07/06 13:16:39;;;;;;;1.80;1.45;;;;;;;;;;5065716;28;24379;-46
2022/07/06 13:19:04;;;;;;;2.07;1.50;;;;;;;;;;5065309;28;24746;-46
2022/07/06 13:21:29;;;;;;;2.10;1.50;;;;;;;;;;5065652;28;24457;-46
2022/07/06 13:23:54;;;;;;;2.05;1.70;;;;;;;;;;5065458;28;24418;-47
2022/07/06 13:26:20;;;;;;;1.93;1.50;;;;;;;;;;5065489;28;24491;-47
2022/07/06 13:28:45;;;;;;;1.80;1.50;;;;;;;;;;5065729;28;24519;-46
2022/07/06 13:31:10;;;;;;;2.80;1.50;;;;;;;;;;5065474;28;24394;-46
2022/07/06 13:33:35;;;;;;;2.47;1.60;;;;;;;;;;5065446;28;24493;-47
2022/07/06 13:36:00;;;;;;;1.90;1.80;;;;;;;;;;5065495;28;24387;-46
2022/07/06 13:38:26;;;;;;;4.45;2.00;;;;;;;;;;5068550;28;24525;-46
2022/07/06 13:40:51;;;;;;;1.80;1.70;;;;;;;;;;5068479;28;24593;-46
2022/07/06 13:43:16;;;;;;;3.00;1.80;;;;;;;;;;5087907;28;24422;-46
2022/07/06 13:45:41;;;;;;;2.08;1.50;;;;;;;;;;5067372;28;24449;-46
2022/07/06 13:48:06;;;;;;;2.97;1.60;;;;;;;;;;5065023;28;24719;-47
2022/07/06 13:50:32;;;;;;;2.03;1.55;;;;;;;;;;5064010;28;24415;-46
2022/07/06 13:52:57;;;;;;;1.70;1.60;;;;;;;;;;5065679;28;24375;-45
2022/07/06 13:55:22;;;;;;;2.00;1.80;;;;;;;;;;5065100;28;24391;-45
2022/07/06 13:57:48;;;;;;;1.50;1.40;;;;;;;;;;5067197;28;25156;-46
2022/07/06 14:00:14;;;;;;;1.73;1.60;;;;;;;;;;5069369;28;25603;-46
2022/07/06 14:02:39;;;;;;;1.75;1.65;;;;;;;;;;5068725;28;24909;-45
2022/07/06 14:05:05;;;;;;;1.90;1.80;;;;;;;;;;5068668;28;24406;-47
2022/07/06 14:07:30;;;;;;;1.80;1.70;;;;;;;;;;5068939;28;24777;-46
2022/07/06 14:09:55;;;;;;;1.60;1.50;;;;;;;;;;5068845;28;24387;-46
2022/07/06 14:12:23;;;;;;;2.77;1.80;;;;;;;;;;5081922;28;25262;-46
2022/07/06 14:14:48;;;;;;;1.67;1.58;;;;;;;;;;5088559;28;25059;-48
2022/07/06 14:17:13;;;;;;;1.80;1.70;;;;;;;;;;5089716;28;24416;-46
2022/07/06 14:19:38;;;;;;;2.40;1.77;;;;;;;;;;5088917;28;24392;-47
2022/07/06 14:22:03;;;;;;;2.20;2.00;;;;;;;;;;5079147;28;24422;-47
2022/07/06 14:24:29;;;;;;;2.33;1.70;;;;;;;;;;5088566;28;24432;-65
2022/07/06 14:26:54;;;;;;;2.22;1.80;;;;;;;;;;5082510;28;24482;-47
2022/07/06 14:29:19;;;;;;;2.77;1.70;;;;;;;;;;5070792;28;24436;-47
2022/07/06 14:31:44;;;;;;;1.80;1.70;;;;;;;;;;5079267;28;24410;-46
2022/07/06 14:34:09;;;;;;;1.60;1.50;;;;;;;;;;5101625;28;24417;-47
2022/07/06 14:36:37;;;;;;;1.80;1.60;;;;;;;;;;5090346;28;24406;-47
2022/07/06 14:39:02;;;;;;;1.50;1.40;;;;;;;;;;5088647;28;24765;-48
2022/07/06 14:41:27;;;;;;;1.57;1.23;;;;;;;;;;5088015;28;24437;-47